Time;durP1;ratioP1;P1;durP2;ratioP2;P2;SDS_P1;SDS_P2;PMS_P1;PMS_P2;Temp;Humidity;BMP_temperature;BMP_pressure;BME280_temperature;BME280_humidity;BME280_pressure;Samples;Min_cycle;Max_cycle;Signal;HPM_P1;HPM_P2
2023/02/28 00:00:18;;;;;;;4.57;3.70;;;;;;;3.37;38.91;98088.44;4952083;28;20454;-69
2023/02/28 00:02:43;;;;;;;4.77;3.10;;;;;;;3.42;39.17;98089.94;4951909;28;20841;-69
2023/02/28 00:05:11;;;;;;;6.80;3.70;;;;;;;3.42;39.10;98089.94;4956907;28;20491;-69
2023/02/28 00:07:36;;;;;;;4.70;3.40;;;;;;;3.46;39.06;98089.69;4949089;28;20277;-68
2023/02/28 00:10:03;;;;;;;4.40;3.57;;;;;;;3.40;39.19;98087.47;4951611;28;20509;-71
2023/02/28 00:12:29;;;;;;;4.87;3.50;;;;;;;3.38;39.32;98084.09;4953016;28;20233;-69
2023/02/28 00:14:54;;;;;;;7.23;4.17;;;;;;;3.38;39.67;98084.09;4955533;28;20820;-69
2023/02/28 00:17:20;;;;;;;4.90;3.60;;;;;;;3.35;39.44;98090.28;4952366;28;20630;-68
2023/02/28 00:19:49;;;;;;;4.30;3.40;;;;;;;3.32;39.71;98087.03;4959262;28;20186;-69
2023/02/28 00:22:16;;;;;;;5.13;3.80;;;;;;;3.30;39.99;98084.53;4954097;28;20436;-69
2023/02/28 00:24:41;;;;;;;5.00;3.33;;;;;;;3.23;39.82;98089.22;4951263;28;20525;-69
2023/02/28 00:27:07;;;;;;;4.93;3.63;;;;;;;3.18;40.12;98091.22;4956134;28;20509;-69
2023/02/28 00:29:32;;;;;;;4.30;3.60;;;;;;;3.15;40.05;98088.78;4937881;29;20186;-69
2023/02/28 00:31:58;;;;;;;9.03;4.20;;;;;;;3.13;40.15;98085.47;4949929;28;20217;-70
2023/02/28 00:34:23;;;;;;;5.00;3.20;;;;;;;3.15;39.94;98086.19;4951861;28;20217;-68
2023/02/28 00:36:49;;;;;;;5.10;3.20;;;;;;;3.16;40.06;98085.28;4951206;28;20206;-67
2023/02/28 00:39:14;;;;;;;6.40;3.63;;;;;;;3.17;39.96;98086.94;4951857;28;20186;-69
2023/02/28 00:41:40;;;;;;;4.20;3.27;;;;;;;3.18;40.17;98087.81;4955669;28;20189;-68
2023/02/28 00:44:05;;;;;;;5.23;3.60;;;;;;;3.17;40.44;98086.94;4962709;28;20264;-67
2023/02/28 00:46:30;;;;;;;5.43;3.73;;;;;;;3.18;40.42;98088.63;4956123;28;20709;-70
2023/02/28 00:48:56;;;;;;;4.77;3.33;;;;;;;3.18;39.96;98087.81;4956780;28;20620;-69
2023/02/28 00:51:21;;;;;;;4.57;3.37;;;;;;;3.20;40.37;98084.19;4956348;28;20195;-69
2023/02/28 00:53:47;;;;;;;5.87;3.30;;;;;;;3.20;40.00;98089.38;4953936;28;20277;-70
2023/02/28 00:56:13;;;;;;;4.17;3.20;;;;;;;3.18;40.30;98086.03;4951373;28;20202;-69
2023/02/28 00:58:39;;;;;;;5.63;3.60;;;;;;;3.16;40.23;98085.28;4951222;28;20198;-69
2023/02/28 01:01:04;;;;;;;5.70;3.60;;;;;;;3.12;40.13;98082.94;4950908;28;20500;-70
2023/02/28 01:03:29;;;;;;;3.80;3.47;;;;;;;3.05;40.41;98082.44;4959038;28;20185;-69
2023/02/28 01:05:55;;;;;;;5.47;3.60;;;;;;;3.15;40.82;98086.19;4950997;28;20210;-70
2023/02/28 01:08:20;;;;;;;5.13;3.63;;;;;;;3.20;40.49;98088.56;4951031;28;20214;-68
2023/02/28 01:10:46;;;;;;;4.23;3.37;;;;;;;3.23;40.54;98085.78;4950185;28;20187;-68
2023/02/28 01:13:12;;;;;;;4.30;3.47;;;;;;;3.26;40.34;98079.59;4958727;28;20590;-69
2023/02/28 01:15:39;;;;;;;5.43;3.50;;;;;;;3.19;40.58;98079.94;4953831;28;20219;-69
2023/02/28 01:18:05;;;;;;;4.93;3.60;;;;;;;3.10;40.75;98075.25;4966074;28;20241;-70
2023/02/28 01:20:30;;;;;;;4.50;3.43;;;;;;;3.15;40.69;98072.41;4954650;28;20481;-69
2023/02/28 01:22:55;;;;;;;4.80;3.97;;;;;;;3.14;40.84;98079.38;4950523;28;20269;-69
2023/02/28 01:25:21;;;;;;;6.40;3.57;;;;;;;3.12;40.76;98073.44;4950154;28;20237;-68
2023/02/28 01:27:46;;;;;;;4.97;3.93;;;;;;;3.09;41.25;98078.78;4948816;28;20178;-70
2023/02/28 01:30:12;;;;;;;5.53;3.40;;;;;;;3.08;41.04;98077.09;4950727;28;20251;-69
2023/02/28 01:32:37;;;;;;;4.80;3.47;;;;;;;3.09;41.15;98076.19;4950662;28;20671;-69
2023/02/28 01:35:03;;;;;;;6.13;3.80;;;;;;;3.10;40.98;98070.09;4958623;28;20329;-70
2023/02/28 01:37:28;;;;;;;4.40;3.70;;;;;;;3.11;41.34;98071.75;4949684;28;20245;-70
2023/02/28 01:39:54;;;;;;;4.70;3.73;;;;;;;3.02;41.78;98075.69;4949454;28;20186;-70
2023/02/28 01:42:20;;;;;;;4.30;3.77;;;;;;;3.07;41.38;98078.00;4955786;28;20721;-70
2023/02/28 01:45:20;;;;;;;5.23;4.00;;;;;;;3.06;41.38;98079.78;4959753;28;20345;-70
2023/02/28 01:47:45;;;;;;;5.47;4.50;;;;;;;3.10;41.71;98080.44;4951385;28;20421;-69
2023/02/28 01:50:15;;;;;;;4.37;3.83;;;;;;;3.09;41.67;98073.59;4933192;29;20426;-70
2023/02/28 01:52:40;;;;;;;12.37;4.10;;;;;;;3.12;41.85;98067.41;4961859;28;20586;-69
2023/02/28 01:55:07;;;;;;;5.43;4.37;;;;;;;3.05;41.82;98067.75;4954389;28;20492;-68
2023/02/28 01:57:37;;;;;;;10.60;4.00;;;;;;;3.00;41.71;98059.38;4961892;28;20281;-69
2023/02/28 02:00:23;;;;;;;5.83;3.67;;;;;;;2.95;42.14;98056.22;4926285;28;20573;-69
2023/02/28 02:02:51;;;;;;;6.60;4.53;;;;;;;2.90;42.40;98059.03;4949924;28;20418;-69
2023/02/28 02:05:28;;;;;;;6.93;3.70;;;;;;;2.86;42.59;98056.69;4933498;29;20512;-69
2023/02/28 02:08:13;;;;;;;6.47;4.00;;;;;;;2.88;42.66;98044.50;4957557;28;20410;-67
2023/02/28 02:10:44;;;;;;;8.13;4.20;;;;;;;2.88;42.90;98047.09;4932473;28;20422;-69
2023/02/28 02:13:16;;;;;;;8.00;4.03;;;;;;;2.83;43.20;98049.94;4937177;29;20470;-69
2023/02/28 02:15:59;;;;;;;6.87;4.47;;;;;;;2.85;43.17;98044.66;4946836;28;20528;-69
2023/02/28 02:18:33;;;;;;;7.07;4.80;;;;;;;2.87;43.21;98043.69;4957918;28;20571;-68
2023/02/28 02:21:13;;;;;;;4.67;3.77;;;;;;;2.85;43.14;98035.16;4960014;28;20426;-69
2023/02/28 02:23:52;;;;;;;6.03;4.30;;;;;;;2.80;43.58;98042.34;4953340;28;20425;-69
2023/02/28 02:26:36;;;;;;;5.77;3.87;;;;;;;2.74;43.50;98038.31;4958697;28;20585;-70
2023/02/28 02:29:24;;;;;;;6.27;4.70;;;;;;;2.74;43.95;98027.97;4955242;28;20476;-70
2023/02/28 02:32:00;;;;;;;7.90;4.60;;;;;;;2.79;43.59;98039.84;4957412;28;20434;-70
2023/02/28 02:34:38;;;;;;;5.90;4.43;;;;;;;2.82;43.98;98032.72;4954865;28;20426;-70
2023/02/28 02:37:20;;;;;;;6.80;4.37;;;;;;;2.80;43.97;98034.56;4934815;28;20453;-68
2023/02/28 02:40:03;;;;;;;8.87;4.80;;;;;;;2.80;43.74;98031.97;4932057;28;20465;-69
2023/02/28 02:42:42;;;;;;;6.23;4.87;;;;;;;2.68;44.35;98033.50;4948489;28;20460;-69
2023/02/28 02:45:21;;;;;;;6.80;4.47;;;;;;;2.55;44.70;98027.28;4941441;29;20509;-69
2023/02/28 02:47:46;;;;;;;6.07;4.77;;;;;;;2.59;44.55;98028.78;4949159;28;20429;-68
2023/02/28 02:50:17;;;;;;;7.60;5.57;;;;;;;2.56;45.16;98029.78;4976086;28;20409;-71
2023/02/28 02:52:46;;;;;;;6.03;5.07;;;;;;;2.54;45.28;98036.81;4970586;28;20429;-67
2023/02/28 02:55:14;;;;;;;6.93;5.43;;;;;;;2.50;45.07;98037.91;4933604;29;20435;-69
2023/02/28 02:57:47;;;;;;;6.67;5.13;;;;;;;2.50;45.36;98031.88;4942644;28;20918;-71
2023/02/28 03:00:14;;;;;;;7.40;5.23;;;;;;;2.46;45.46;98029.44;4955840;28;20426;-69
2023/02/28 03:02:40;;;;;;;9.43;5.33;;;;;;;2.45;45.54;98032.97;4968531;28;20488;-70
2023/02/28 03:05:12;;;;;;;7.93;5.20;;;;;;;2.45;45.71;98032.13;4952966;28;20462;-69
2023/02/28 03:07:39;;;;;;;11.53;5.10;;;;;;;2.42;45.95;98037.44;4938340;28;20454;-69
2023/02/28 03:10:28;;;;;;;6.83;4.50;;;;;;;2.35;46.01;98030.94;4951924;28;20425;-69
2023/02/28 03:13:04;;;;;;;6.53;5.13;;;;;;;2.26;46.17;98027.94;4964295;28;20417;-68
2023/02/28 03:15:44;;;;;;;7.50;5.30;;;;;;;2.26;46.33;98043.44;4968043;28;20448;-70
2023/02/28 03:18:32;;;;;;;6.73;4.90;;;;;;;2.27;46.85;98036.50;4936379;29;20453;-70
2023/02/28 03:21:09;;;;;;;8.40;5.30;;;;;;;2.12;47.11;98038.16;4952282;28;20415;-69
2023/02/28 03:23:41;;;;;;;7.00;5.13;;;;;;;2.18;46.95;98030.06;4953450;28;20418;-69
2023/02/28 03:26:12;;;;;;;8.60;5.70;;;;;;;2.16;47.16;98034.47;4960754;28;20839;-69
2023/02/28 03:28:46;;;;;;;6.80;5.10;;;;;;;2.21;47.16;98037.66;4951654;28;20429;-69
2023/02/28 03:31:39;;;;;;;8.53;5.30;;;;;;;2.20;47.10;98033.41;4945835;29;21142;-70
2023/02/28 03:34:10;;;;;;;9.30;5.50;;;;;;;2.22;47.26;98031.56;4934209;28;20429;-68
2023/02/28 03:36:43;;;;;;;8.30;5.73;;;;;;;2.08;47.61;98029.69;4935344;29;20974;-67
2023/02/28 03:39:14;;;;;;;6.53;5.40;;;;;;;2.13;47.79;98026.88;4937212;28;20493;-70
2023/02/28 03:41:55;;;;;;;8.17;5.90;;;;;;;2.18;47.83;98024.88;4935341;29;20796;-69
2023/02/28 03:44:28;;;;;;;8.10;5.30;;;;;;;2.24;47.71;98023.72;4935480;29;20433;-69
2023/02/28 03:47:08;;;;;;;7.03;5.57;;;;;;;2.24;47.93;98027.16;4935300;28;20518;-69
2023/02/28 03:49:52;;;;;;;7.20;5.23;;;;;;;2.19;47.70;98028.31;4953652;28;20426;-69
2023/02/28 03:52:18;;;;;;;8.10;5.63;;;;;;;2.15;48.02;98025.88;4943149;29;20839;-70
2023/02/28 03:54:54;;;;;;;7.63;5.40;;;;;;;2.11;48.24;98029.53;4967641;28;20426;-67
2023/02/28 03:57:33;;;;;;;9.53;5.70;;;;;;;2.13;48.14;98029.47;4929909;29;20466;-69
2023/02/28 04:00:07;;;;;;;7.80;5.40;;;;;;;2.17;48.34;98028.38;4952201;28;20460;-69
2023/02/28 04:02:33;;;;;;;7.50;5.00;;;;;;;2.07;48.14;98027.19;4940192;28;20788;-68
2023/02/28 04:05:00;;;;;;;5.77;4.93;;;;;;;2.11;48.49;98029.53;4967943;28;20442;-69
2023/02/28 04:07:29;;;;;;;9.10;5.70;;;;;;;2.14;48.87;98033.72;4953475;28;20210;-68
2023/02/28 04:09:54;;;;;;;9.27;6.33;;;;;;;2.22;48.70;98034.16;4951494;28;20431;-69
2023/02/28 04:12:21;;;;;;;6.57;5.20;;;;;;;2.27;48.42;98033.91;4952792;28;21118;-69
2023/02/28 04:14:46;;;;;;;7.40;6.30;;;;;;;2.26;48.05;98040.84;4962131;28;20556;-69
2023/02/28 04:17:11;;;;;;;7.23;5.57;;;;;;;2.24;48.42;98034.94;4955902;28;20480;-69
2023/02/28 04:19:37;;;;;;;8.03;5.70;;;;;;;2.24;48.51;98039.25;4971572;28;20277;-68
2023/02/28 04:22:02;;;;;;;6.80;5.53;;;;;;;2.19;48.35;98034.31;4951802;28;20892;-69
2023/02/28 04:24:28;;;;;;;7.13;5.20;;;;;;;2.27;48.64;98039.91;4953199;28;20182;-69
2023/02/28 04:26:55;;;;;;;9.60;5.77;;;;;;;2.24;48.37;98037.50;4942944;28;20709;-68
2023/02/28 04:29:23;;;;;;;9.33;5.80;;;;;;;2.26;48.38;98037.41;4948780;28;20178;-67
2023/02/28 04:31:49;;;;;;;6.57;5.57;;;;;;;2.23;48.65;98032.41;4950526;28;20433;-69
2023/02/28 04:34:14;;;;;;;8.33;5.60;;;;;;;2.15;48.89;98040.56;4934149;29;20422;-69
2023/02/28 04:36:40;;;;;;;9.00;6.10;;;;;;;2.18;48.67;98035.22;4950762;28;20210;-66
2023/02/28 04:39:05;;;;;;;7.90;6.47;;;;;;;2.20;48.79;98030.81;4953043;28;20181;-70
2023/02/28 04:41:31;;;;;;;9.73;6.83;;;;;;;2.21;48.55;98029.91;4960337;28;20184;-68
2023/02/28 04:43:56;;;;;;;7.60;5.83;;;;;;;2.32;48.92;98033.69;4962098;28;20186;-69
2023/02/28 04:46:22;;;;;;;8.00;6.00;;;;;;;2.34;48.53;98029.25;4950906;28;20210;-69
2023/02/28 04:48:48;;;;;;;9.07;6.10;;;;;;;2.26;48.50;98038.28;4950111;28;20185;-68
2023/02/28 04:51:16;;;;;;;7.80;5.40;;;;;;;2.32;48.48;98036.25;4950488;28;20427;-68
2023/02/28 04:53:42;;;;;;;9.20;5.20;;;;;;;2.34;48.41;98029.25;4950584;28;20190;-68
2023/02/28 04:56:09;;;;;;;7.60;5.87;;;;;;;2.36;48.60;98032.59;4950335;28;20489;-67
2023/02/28 04:58:35;;;;;;;8.23;5.57;;;;;;;2.43;48.78;98028.78;4927860;29;20278;-68
2023/02/28 05:01:12;;;;;;;8.53;6.20;;;;;;;2.41;48.39;98033.19;4950880;28;20513;-71
2023/02/28 05:03:40;;;;;;;7.40;6.60;;;;;;;2.48;48.38;98037.13;4955648;28;20332;-71
2023/02/28 05:06:07;;;;;;;8.90;5.63;;;;;;;2.46;48.26;98038.97;4957305;28;20461;-70
2023/02/28 05:08:32;;;;;;;7.90;5.50;;;;;;;2.48;48.53;98037.13;4950378;28;20461;-69
2023/02/28 05:10:57;;;;;;;10.20;6.57;;;;;;;2.45;48.38;98029.53;4949658;28;20481;-70
2023/02/28 05:13:24;;;;;;;9.13;6.70;;;;;;;2.38;48.49;98036.78;4954109;28;20205;-70
2023/02/28 05:15:49;;;;;;;6.60;5.77;;;;;;;2.44;48.49;98036.47;4952814;28;20879;-70
2023/02/28 05:18:14;;;;;;;7.47;5.97;;;;;;;2.48;48.65;98037.13;4951989;28;20245;-68
2023/02/28 05:20:40;;;;;;;11.47;6.80;;;;;;;2.46;48.46;98034.63;4953034;28;20225;-69
2023/02/28 05:23:05;;;;;;;9.80;6.87;;;;;;;2.38;48.60;98035.97;4956449;28;20218;-69
2023/02/28 05:25:31;;;;;;;11.97;7.07;;;;;;;2.37;48.77;98044.63;4950482;28;20253;-70
2023/02/28 05:27:56;;;;;;;9.10;6.90;;;;;;;2.29;48.91;98035.50;4949867;28;20261;-69
2023/02/28 05:30:22;;;;;;;8.50;6.60;;;;;;;2.36;49.19;98046.38;4949805;28;20246;-69
2023/02/28 05:32:51;;;;;;;7.77;6.23;;;;;;;2.41;49.07;98051.31;4948249;28;20218;-68
2023/02/28 05:35:16;;;;;;;6.63;5.70;;;;;;;2.46;48.94;98044.97;4949831;28;20721;-69
2023/02/28 05:37:42;;;;;;;8.43;6.47;;;;;;;2.48;48.80;98047.50;4949582;28;20457;-70
2023/02/28 05:40:11;;;;;;;11.57;6.40;;;;;;;2.51;49.02;98049.94;4949236;28;20281;-70
2023/02/28 05:42:37;;;;;;;12.37;6.87;;;;;;;2.51;48.79;98042.16;4955064;28;20210;-67
2023/02/28 05:45:04;;;;;;;9.93;6.87;;;;;;;2.52;48.74;98050.75;4953245;28;20457;-70
2023/02/28 05:47:29;;;;;;;12.03;6.57;;;;;;;2.40;49.25;98055.66;4950160;28;20525;-70
2023/02/28 05:49:55;;;;;;;10.23;6.60;;;;;;;2.49;49.38;98053.50;4949409;28;20505;-68
2023/02/28 05:52:20;;;;;;;8.20;6.50;;;;;;;2.56;49.23;98058.25;4950132;28;20785;-69
2023/02/28 05:54:46;;;;;;;10.97;6.53;;;;;;;2.61;48.96;98052.84;4959242;28;20179;-70
2023/02/28 05:57:12;;;;;;;8.90;6.80;;;;;;;2.58;49.00;98048.66;4950964;28;20234;-70
2023/02/28 05:59:39;;;;;;;9.17;6.53;;;;;;;2.58;49.19;98045.25;4949795;28;21086;-68
2023/02/28 06:02:06;;;;;;;8.37;6.50;;;;;;;2.53;49.40;98048.06;4955678;28;20182;-69
2023/02/28 06:04:31;;;;;;;10.70;6.80;;;;;;;2.51;49.27;98055.09;4961567;28;20430;-68
2023/02/28 06:06:57;;;;;;;11.97;7.17;;;;;;;2.52;49.57;98051.56;4957325;28;20856;-70
2023/02/28 06:09:22;;;;;;;8.70;6.40;;;;;;;2.48;49.50;98050.06;4949325;28;20218;-69
2023/02/28 06:11:48;;;;;;;8.90;7.17;;;;;;;2.43;49.82;98052.06;4950485;28;20187;-67
2023/02/28 06:14:18;;;;;;;11.50;7.37;;;;;;;2.44;49.67;98058.91;4951786;28;20202;-67
2023/02/28 06:16:44;;;;;;;8.00;6.33;;;;;;;2.52;50.13;98054.16;4949640;28;20249;-68
2023/02/28 06:19:09;;;;;;;10.53;7.37;;;;;;;2.57;49.70;98048.75;4956652;28;20461;-70
2023/02/28 06:21:36;;;;;;;10.03;7.17;;;;;;;2.67;49.75;98051.69;4950211;28;20524;-68
2023/02/28 06:24:02;;;;;;;10.00;7.47;;;;;;;2.64;50.10;98060.44;4950121;28;20532;-69
2023/02/28 06:26:28;;;;;;;11.07;7.50;;;;;;;2.68;49.91;98068.88;4953051;28;20212;-68
2023/02/28 06:28:54;;;;;;;14.10;6.70;;;;;;;2.72;50.10;98070.41;4950807;28;20441;-70
2023/02/28 06:31:20;;;;;;;10.80;8.00;;;;;;;2.79;50.04;98070.91;4953549;28;20204;-70
2023/02/28 06:33:46;;;;;;;10.87;7.93;;;;;;;2.80;49.85;98075.16;4953766;28;20422;-70
2023/02/28 06:36:13;;;;;;;12.17;7.83;;;;;;;2.77;49.46;98078.78;4951559;28;20461;-71
2023/02/28 06:38:39;;;;;;;12.60;8.73;;;;;;;2.76;49.61;98082.28;4952477;28;20817;-69
2023/02/28 06:41:05;;;;;;;12.73;7.93;;;;;;;2.81;49.52;98085.44;4954749;28;20434;-70
2023/02/28 06:43:34;;;;;;;8.33;7.33;;;;;;;2.80;49.48;98077.75;4954914;28;20453;-70
2023/02/28 06:46:02;;;;;;;10.40;7.50;;;;;;;2.87;49.52;98085.13;4955701;28;20939;-69
2023/02/28 06:48:27;;;;;;;9.67;7.23;;;;;;;2.92;49.18;98084.88;4953806;28;20481;-70
2023/02/28 06:51:02;;;;;;;18.20;8.07;;;;;;;2.89;48.93;98083.28;4958377;28;21151;-70
2023/02/28 06:53:27;;;;;;;9.37;7.57;;;;;;;2.91;49.44;98078.84;4947199;28;20190;-70
2023/02/28 06:55:53;;;;;;;10.37;7.13;;;;;;;2.99;49.02;98085.38;4952576;28;20988;-70
2023/02/28 06:58:18;;;;;;;10.73;7.33;;;;;;;3.03;48.50;98086.88;4958111;28;20667;-69
2023/02/28 07:00:45;;;;;;;13.07;8.07;;;;;;;3.01;48.59;98081.78;4957777;28;20265;-69
2023/02/28 07:03:11;;;;;;;9.77;7.07;;;;;;;3.00;49.05;98080.09;4954951;28;20656;-70
2023/02/28 07:05:38;;;;;;;11.00;8.00;;;;;;;3.02;48.75;98083.44;4966304;28;20441;-69
2023/02/28 07:08:04;;;;;;;9.80;7.83;;;;;;;3.03;48.68;98092.03;4953444;28;20430;-70
2023/02/28 07:10:30;;;;;;;13.17;8.30;;;;;;;3.01;48.54;98093.91;4952808;28;20817;-72
2023/02/28 07:12:55;;;;;;;16.13;7.67;;;;;;;3.05;48.79;98097.97;4957146;28;20421;-71
2023/02/28 07:15:21;;;;;;;9.93;7.80;;;;;;;3.04;48.62;98101.47;4958495;28;20815;-71
2023/02/28 07:17:46;;;;;;;10.43;7.70;;;;;;;3.10;47.99;98103.75;4953005;28;20219;-70
2023/02/28 07:20:12;;;;;;;10.60;7.80;;;;;;;3.12;48.21;98094.16;4954389;28;20334;-71
2023/02/28 07:22:38;;;;;;;11.10;8.10;;;;;;;3.09;48.34;98107.25;4959269;28;20281;-71
2023/02/28 07:25:04;;;;;;;12.00;8.47;;;;;;;3.09;47.48;98103.84;4952238;28;20668;-71
2023/02/28 07:27:30;;;;;;;12.40;8.30;;;;;;;3.05;47.29;98100.56;4963095;28;20198;-70
2023/02/28 07:29:55;;;;;;;12.53;7.93;;;;;;;3.06;47.01;98097.91;4952648;28;20422;-72
2023/02/28 07:32:21;;;;;;;17.50;8.10;;;;;;;3.11;47.20;98105.44;4954114;28;20663;-71
2023/02/28 07:34:46;;;;;;;11.03;8.07;;;;;;;2.96;46.73;98099.31;4955355;28;20564;-71
2023/02/28 07:37:11;;;;;;;11.83;8.10;;;;;;;2.96;46.95;98101.06;4956723;28;20562;-68
2023/02/28 07:39:37;;;;;;;20.40;9.03;;;;;;;2.97;47.05;98105.34;4954314;28;20521;-70
2023/02/28 07:42:09;;;;;;;13.37;8.80;;;;;;;2.99;46.62;98104.31;4961484;28;20182;-70
2023/02/28 07:44:35;;;;;;;13.93;8.63;;;;;;;2.99;46.62;98113.88;4952824;28;20186;-70
2023/02/28 07:47:00;;;;;;;10.93;8.07;;;;;;;3.00;47.23;98110.38;4952689;28;20426;-69
2023/02/28 07:49:26;;;;;;;13.17;9.07;;;;;;;3.00;46.52;98115.53;4953549;28;20445;-71
2023/02/28 07:51:51;;;;;;;13.90;8.10;;;;;;;3.09;47.10;98109.03;4953262;28;20190;-69
2023/02/28 07:54:17;;;;;;;15.70;9.67;;;;;;;3.13;46.47;98115.69;4952869;28;20778;-70
2023/02/28 07:56:42;;;;;;;13.93;9.20;;;;;;;3.12;46.80;98108.84;4958331;28;20225;-70
2023/02/28 07:59:08;;;;;;;12.47;9.17;;;;;;;3.14;46.66;98107.88;4955112;28;20269;-71
2023/02/28 08:01:33;;;;;;;14.00;9.67;;;;;;;3.09;46.61;98109.84;4953243;28;20275;-71
2023/02/28 08:03:58;;;;;;;17.10;11.40;;;;;;;3.18;46.10;98114.53;4960762;28;20186;-71
2023/02/28 08:06:26;;;;;;;17.33;9.20;;;;;;;3.16;46.17;98113.78;4959823;28;20266;-71
2023/02/28 08:08:51;;;;;;;13.73;9.80;;;;;;;3.20;46.27;98115.28;4951983;28;20186;-71
2023/02/28 08:11:17;;;;;;;17.20;10.90;;;;;;;3.18;46.24;98124.06;4941980;28;20434;-72
2023/02/28 08:13:44;;;;;;;12.37;9.03;;;;;;;3.21;45.74;98123.91;4956897;28;20970;-71
2023/02/28 08:16:10;;;;;;;13.63;10.00;;;;;;;3.28;45.53;98126.97;4952040;28;20449;-70
2023/02/28 08:18:35;;;;;;;26.17;16.33;;;;;;;3.33;45.97;98125.84;4952549;28;20960;-71
2023/02/28 08:21:10;;;;;;;16.23;11.00;;;;;;;3.33;45.74;98125.84;4936768;28;20428;-71
2023/02/28 08:23:36;;;;;;;57.33;28.77;;;;;;;3.25;45.87;98120.22;4948791;28;20177;-71
2023/02/28 08:26:02;;;;;;;45.97;21.10;;;;;;;3.18;45.98;98111.94;4950917;28;20500;-71
2023/02/28 08:28:28;;;;;;;29.70;16.90;;;;;;;3.29;46.23;98120.88;4934993;28;20209;-71
2023/02/28 08:30:54;;;;;;;17.73;12.47;;;;;;;3.27;45.68;98120.16;4939560;28;20457;-71
2023/02/28 08:33:19;;;;;;;18.37;11.23;;;;;;;3.26;45.72;98121.88;4950059;28;20197;-70
2023/02/28 08:35:45;;;;;;;14.83;10.30;;;;;;;3.29;45.65;98124.31;4939217;29;20438;-70
2023/02/28 08:38:10;;;;;;;14.77;10.30;;;;;;;3.37;45.97;98123.91;4949194;28;20217;-69
2023/02/28 08:40:35;;;;;;;14.33;10.20;;;;;;;3.43;45.81;98133.09;4946412;28;20183;-70
2023/02/28 08:43:01;;;;;;;13.00;9.50;;;;;;;3.41;45.35;98127.16;4957069;28;20277;-70
2023/02/28 08:45:26;;;;;;;15.80;9.43;;;;;;;3.46;45.30;98128.56;4951233;28;20686;-71
2023/02/28 08:47:54;;;;;;;12.60;9.20;;;;;;;3.45;45.58;98126.91;4950698;28;20197;-71
2023/02/28 08:50:19;;;;;;;17.67;9.20;;;;;;;3.37;45.68;98129.91;4952607;28;20205;-69
2023/02/28 08:52:45;;;;;;;14.13;10.50;;;;;;;3.31;45.58;98138.03;4949282;28;20422;-72
2023/02/28 08:55:10;;;;;;;20.50;11.17;;;;;;;3.22;45.33;98129.00;4950011;28;20774;-71
2023/02/28 08:57:36;;;;;;;14.43;9.83;;;;;;;3.34;45.89;98139.63;4952623;28;20253;-72
2023/02/28 09:00:05;;;;;;;15.80;9.90;;;;;;;3.38;45.84;98143.72;4934607;29;20294;-70
2023/02/28 09:02:31;;;;;;;13.80;9.50;;;;;;;3.38;46.04;98135.94;4957953;28;20178;-70
2023/02/28 09:04:57;;;;;;;17.90;10.00;;;;;;;3.44;45.30;98140.78;4951084;28;20446;-70
2023/02/28 09:07:23;;;;;;;15.63;9.70;;;;;;;3.50;44.95;98144.78;4909102;28;20489;-72
2023/02/28 09:09:55;;;;;;;13.40;10.07;;;;;;;3.49;45.11;98146.56;4919286;29;20577;-69
2023/02/28 09:12:33;;;;;;;12.97;9.30;;;;;;;3.60;45.39;98145.13;4961186;28;20424;-70
2023/02/28 09:14:58;;;;;;;15.30;10.00;;;;;;;3.62;45.24;98145.88;4949698;28;20453;-70
2023/02/28 09:17:24;;;;;;;16.00;9.97;;;;;;;3.62;45.34;98149.28;4951767;28;20497;-72
2023/02/28 09:19:49;;;;;;;18.80;9.80;;;;;;;3.59;44.78;98146.03;4949833;28;20218;-69
2023/02/28 09:22:15;;;;;;;15.20;10.23;;;;;;;3.51;44.89;98144.72;4951667;28;20353;-70
2023/02/28 09:24:41;;;;;;;15.03;10.23;;;;;;;3.45;45.46;98152.81;4950121;28;20189;-70
2023/02/28 09:27:06;;;;;;;16.70;10.00;;;;;;;3.56;44.66;98148.78;4949410;28;20422;-72
2023/02/28 09:29:32;;;;;;;23.20;10.00;;;;;;;3.56;44.91;98153.97;4957382;28;20321;-70
2023/02/28 09:31:58;;;;;;;17.37;10.03;;;;;;;3.48;45.04;98152.66;4951948;28;20201;-71
2023/02/28 09:34:24;;;;;;;16.70;10.03;;;;;;;3.54;45.30;98149.72;4957953;28;20417;-70
2023/02/28 09:36:54;;;;;;;18.17;11.10;;;;;;;3.56;44.57;98153.97;4950913;28;20268;-71
2023/02/28 09:39:21;;;;;;;16.33;11.07;;;;;;;3.53;45.02;98157.59;4950517;28;20469;-70
2023/02/28 09:41:50;;;;;;;13.87;10.37;;;;;;;3.53;44.91;98157.59;4950777;28;20457;-70
2023/02/28 09:44:24;;;;;;;16.40;10.70;;;;;;;3.49;45.33;98159.50;4929533;28;20435;-71
2023/02/28 09:47:01;;;;;;;15.20;10.53;;;;;;;3.51;44.77;98162.88;4949822;28;20517;-70
2023/02/28 09:49:39;;;;;;;14.00;10.07;;;;;;;3.59;44.79;98164.19;4931502;28;20438;-70
2023/02/28 09:52:10;;;;;;;16.33;9.93;;;;;;;3.66;44.68;98166.34;4949417;28;20429;-71
2023/02/28 09:54:36;;;;;;;14.73;10.60;;;;;;;3.74;44.95;98168.53;4955267;28;20422;-71
2023/02/28 09:57:04;;;;;;;14.43;11.03;;;;;;;3.75;44.00;98166.75;4949290;28;20982;-71
2023/02/28 09:59:36;;;;;;;14.37;10.30;;;;;;;3.78;44.29;98164.81;4931384;28;20426;-70
2023/02/28 10:02:01;;;;;;;15.67;10.73;;;;;;;3.93;44.83;98167.47;4933256;29;20418;-70
2023/02/28 10:04:51;;;;;;;16.30;11.00;;;;;;;3.99;43.62;98169.72;4917623;28;20424;-70
2023/02/28 10:07:19;;;;;;;14.70;10.90;;;;;;;3.87;43.64;98162.66;4936851;28;20174;-71
2023/02/28 10:09:47;;;;;;;15.60;10.37;;;;;;;3.98;43.87;98166.28;4932222;29;20430;-70
2023/02/28 10:12:13;;;;;;;16.47;10.60;;;;;;;4.07;43.57;98171.91;4950258;28;20453;-70
2023/02/28 10:14:41;;;;;;;14.83;10.47;;;;;;;4.17;43.60;98175.63;4934478;29;20505;-70
2023/02/28 10:17:23;;;;;;;16.73;10.00;;;;;;;4.30;43.65;98170.56;4947933;28;21279;-70
2023/02/28 10:20:13;;;;;;;13.57;10.50;;;;;;;4.34;43.26;98169.47;4962729;28;20434;-71
2023/02/28 10:22:59;;;;;;;15.63;10.50;;;;;;;4.45;43.84;98184.41;4932070;29;20492;-71
2023/02/28 10:25:29;;;;;;;14.70;10.77;;;;;;;4.43;43.63;98194.06;4948443;28;20446;-71
2023/02/28 10:28:15;;;;;;;15.03;11.20;;;;;;;4.50;43.31;98186.75;4956675;28;20417;-71
2023/02/28 10:30:47;;;;;;;13.80;10.17;;;;;;;4.26;42.21;98197.63;4943753;28;20422;-71
2023/02/28 10:33:39;;;;;;;17.00;10.10;;;;;;;4.40;42.37;98186.44;4957094;28;20582;-70
2023/02/28 10:36:06;;;;;;;13.53;9.50;;;;;;;4.39;42.28;98176.97;4954700;28;20885;-71
2023/02/28 10:38:35;;;;;;;17.37;11.73;;;;;;;4.41;43.26;98182.91;4955367;28;20434;-70
2023/02/28 10:41:11;;;;;;;17.50;10.87;;;;;;;4.39;42.82;98184.75;4954696;28;20512;-69
2023/02/28 10:43:38;;;;;;;13.50;10.50;;;;;;;4.57;42.31;98178.50;4951302;28;20422;-71
2023/02/28 10:46:09;;;;;;;14.57;10.27;;;;;;;4.69;42.18;98178.69;4951116;28;20591;-71
2023/02/28 10:48:49;;;;;;;16.17;11.13;;;;;;;4.61;42.27;98176.56;4949070;28;20457;-71
2023/02/28 10:51:16;;;;;;;15.97;11.03;;;;;;;4.64;42.44;98178.13;4943813;28;20426;-70
2023/02/28 10:53:48;;;;;;;16.40;11.30;;;;;;;4.81;42.84;98164.13;4965997;28;20426;-71
2023/02/28 10:56:21;;;;;;;15.97;10.90;;;;;;;4.95;42.55;98165.91;4948959;28;21279;-70
2023/02/28 10:59:15;;;;;;;15.90;11.13;;;;;;;5.04;41.80;98173.97;4951641;28;20426;-70
2023/02/28 11:01:44;;;;;;;15.17;10.93;;;;;;;5.15;41.23;98172.50;4950882;28;20410;-70
2023/02/28 11:04:22;;;;;;;16.70;11.30;;;;;;;5.28;41.11;98169.94;4956729;28;20426;-70
2023/02/28 11:07:08;;;;;;;14.83;10.20;;;;;;;5.39;41.42;98170.13;4954674;28;20532;-70
2023/02/28 11:09:36;;;;;;;15.27;11.00;;;;;;;5.32;40.78;98172.25;4951366;28;20449;-70
2023/02/28 11:12:07;;;;;;;16.00;11.57;;;;;;;5.41;40.47;98175.25;4946254;28;20495;-70
2023/02/28 11:14:37;;;;;;;19.43;11.27;;;;;;;5.53;40.30;98169.25;4940447;28;20457;-71
2023/02/28 11:17:13;;;;;;;13.87;10.90;;;;;;;5.57;40.23;98162.09;4947334;29;20538;-71
2023/02/28 11:19:44;;;;;;;18.10;11.17;;;;;;;5.78;40.16;98159.91;4957994;28;20424;-69
2023/02/28 11:22:10;;;;;;;16.80;11.03;;;;;;;5.93;40.14;98163.28;4953750;28;20437;-70
2023/02/28 11:24:44;;;;;;;14.43;10.37;;;;;;;5.96;39.80;98163.91;4962366;28;20434;-69
2023/02/28 11:27:30;;;;;;;16.00;11.40;;;;;;;6.05;39.38;98164.28;4937731;29;20429;-69
2023/02/28 11:29:57;;;;;;;12.93;10.70;;;;;;;6.29;39.56;98160.06;4952265;28;20566;-70
2023/02/28 11:32:25;;;;;;;14.57;11.03;;;;;;;6.36;38.79;98159.63;4952870;28;20415;-71
2023/02/28 11:35:11;;;;;;;15.00;11.63;;;;;;;6.54;39.01;98163.63;4952539;28;20437;-71
2023/02/28 11:37:37;;;;;;;13.90;10.93;;;;;;;6.67;38.56;98168.00;4953091;28;21008;-70
2023/02/28 11:40:09;;;;;;;27.43;15.73;;;;;;;6.72;38.48;98166.75;4952359;28;20432;-70
2023/02/28 11:42:49;;;;;;;22.60;15.23;;;;;;;7.09;37.96;98163.38;4938121;28;20438;-69
2023/02/28 11:45:43;;;;;;;14.57;10.93;;;;;;;7.65;37.28;98154.25;4952464;28;20446;-68